METARS
Date METAR Location Area
03/07/2015 LG1B 030830Z 00007KT 26/14 Q1019 Arsakeio Athens
03/07/2015 LGY7 030930Z 00004KT 29/17 Q1018 Aegina Attica
02/07/2015 LG37 020730Z 0006102G17388KT 238/158 Q10171 Agia Paraskeyi Attica
02/07/2015 LG5C 021530Z 02304KT 30/11 Q1018 Alimos Attica
03/07/2015 LGH5 031030Z 04504KT 29/17 Q1018 Ampelokipoi Attica
03/07/2015 LGS5 030930Z 04503KT 30/15 Q1018 Anavissos Attica
03/07/2015 LGO0 030930Z 31508KT 29/15 Q1019 Ano Liosia Attica
03/07/2015 LG9B 030930Z 02310KT 30/16 Q1019 Aspropirgos Attica
03/07/2015 LGB9 030930Z 04509KT 30/16 Q1020 Athens - Gazi Attica
03/07/2015 LGL5 030130Z 04501KT 23/13 Q1022 Ekali Attica
03/07/2015 LGS3 030930Z 06806KT 30/15 Q1018 Faliro Attica
03/07/2015 LGM3 030730Z 18003KT 28/17 Q1019 Hydra Attica
30/06/2015 LGI4 300500Z 00000G31104KT 231/173 Q10155 Hydra Attica
20/06/2015 LGO2 201730Z 29302KT 19/10 Q1009 Imittos Attica
03/07/2015 LGT8 030930Z 06802KT 25/15 Q1020 Ippokratios Attica
03/07/2015 LG99 030930Z 00005G17KT 29/17 Q1019 Kantza Attica
02/07/2015 LG13 022215Z 00000KT 21/13 Q1020 Kifissia Attica
03/07/2015 LG3C 030930Z 04505KT 30/15 Q1017 Korydallos Attica
03/07/2015 LGD6 030930Z 00013G25KT 27/16 Q1018 Lavrio Attica
03/07/2015 LGK0 030930Z 00006G17KT 27/15 Q1019 Marousi Attica
03/07/2015 LG00 032110Z 00000KT 15/09 Q1014 Marousi (Anavrita) Attica
03/07/2015 LGR0 030930Z 33806KT 30/16 Q1019 Nea Smirni Attica
03/07/2015 LGM8 030930Z 33805KT 30/17 Q1020 Neos Kosmos Attica
03/07/2015 LGA3 031010Z 04007KT 28/15 Q1019 Pallini - Kantza 2 Attica
03/07/2015 LGK3 030930Z 00017KT 17/14 Q1019 Parnitha 1230 EAA Attica
03/07/2015 LGT6 030930Z 09004KT 30/16 Q1020 Patissia Attica
03/07/2015 LGX9 030930Z 04511KT 26/14 Q1017 Penteli Attica
03/07/2015 LG67 031000Z 0676966G16524KT 269/163 Q10192 Penteli Attica
03/07/2015 LG6D 030930Z 29305KT 30/16 Q1019 Perama Attica
03/07/2015 LGU0 030930Z 06810KT 29/15 Q1019 Peristeri Attica
03/07/2015 LGY6 030930Z 06808G23KT 28/16 Q1020 Porto Rafti Attica
03/07/2015 LG96 030930Z 04505KT 29/17 Q1019 Psychico Attica
03/07/2015 LGZ0 030930Z 02314KT 26/17 Q1019 Rafina Attica
03/07/2015 LG2B 030930Z 04510KT 31/15 Q1018 SEF Attica
03/07/2015 LGG2 031030Z 04511KT 28/16 Q1018 Spata Attica
03/07/2015 LGS6 030930Z 33803KT 30/17 Q1018 Spetses Attica
03/07/2015 LG3B 030930Z 06807KT 28/15 Q1020 Tatoi Attica
03/07/2015 LGZ2 030830Z 00010G22KT 30/14 Q1019 Vari Attica
30/06/2015 LGR6 301530Z 02312KT -RA 19/14 Q1016 Vilia Attica
03/07/2015 LG1D 030930Z 00007KT 27/14 Q1020 Vrilissia Attica
03/07/2015 LG74 022200Z 00000G31104KT 242/143 Q10187 Ymittos Attica
03/07/2015 LGG1 031000Z 0458694G19980KT 282/151 Q331 Kalivia Thorikou Attica E
03/07/2015 LG45 030930Z 06812KT 28/18 Q1021 Markopoulo Attica E
01/07/2015 LG72 302100Z 00000KT 205/137 Q10143 Keratea Attica SE
03/07/2015 LGW4 030830Z 22503KT 23/11 Q1006 Ag. Ioannis Sfakion Crete
03/07/2015 LGJ9 030930Z 31515G28KT 28/14 Q1015 Aghios Nikolaos Crete
03/07/2015 LGT4 031030Z 06810KT 27/16 Q1017 Alikianos Crete
03/07/2015 LGB6 030930Z 27008KT 21/14 Q1015 Anogeia Crete
03/07/2015 LGZ6 030930Z 00010KT 23/12 Q1019 Askyfou Crete
03/07/2015 LG25 031030Z 33805KT 30/18 Q1018 Chania Crete
03/07/2015 LGN3 030930Z 02306KT 27/18 Q1019 Chania Center Crete
03/07/2015 LG61 030930Z 33811KT 26/18 Q1016 Cost - Irakleio Crete
03/07/2015 LG2C 031030Z 29303KT 25/15 Q1001 Elos Crete
03/07/2015 LGL9 030930Z 00008KT 28/18 Q1016 Falasarna Crete
03/07/2015 LG9A 030830Z 29320KT 24/18 Q1015 Finokalia - Lasithi Crete
03/07/2015 LGL1 031030Z 33816KT 26/09 Q1014 Fourfouras Crete
16/06/2015 LGD4 161130Z 00010KT 33/14 Q1010 Fragmapotamon - Rethymno Crete
03/07/2015 LG30 030930Z 31507KT 27/17 Q1017 Heraklion - Knossos Crete
03/07/2015 LG95 030930Z 04513KT 28/15 Q1015 Ierapetra Crete
03/07/2015 LGP0 030930Z 04515G29KT 31/12 Q1013 Lentas Hrakleion Crete
03/07/2015 LGD7 030930Z 27009KT 26/13 Q1015 Metaxochori - Heraklion Crete
03/07/2015 LGI2 030930Z 27003KT 32/14 Q1014 Mires Crete
03/07/2015 LG36 030930Z 11307KT 30/16 Q1015 Paleochora Crete
03/07/2015 LG8A 030930Z 04508G20KT 27/14 Q1015 Pirathi Heraklion Crete
03/07/2015 LG58 030930Z 31509KT 27/19 Q1016 Rethymno Crete
03/07/2015 LGT2 030930Z 33817G30KT 28/15 Q1014 Rethymno - Plakia Crete
03/07/2015 LGB4 030930Z 31508KT 20/12 Q1018 Samaria Crete
30/06/2015 LGY1 300530Z 00000KT 17/10 Q1016 Samaria Crete
03/07/2015 LGM2 030930Z 31514KT 26/18 Q1014 Sitia Crete
03/07/2015 LG75 030930Z 31507G18KT 25/16 Q1018 Spili - Rethymnon Crete
03/07/2015 LG8B 030930Z 33809KT 27/13 Q1016 Stavrakia - Heraclion Crete
03/07/2015 LG50 030930Z 00002KT 21/14 Q1016 Tzermiado Lasithi Crete
03/07/2015 LG7B 030930Z 04512KT 28/13 Q1015 Vagionia - Heraklion Crete
03/07/2015 LG70 030930Z 33804KT 29/13 Q1017 Vrysses Crete
03/07/2015 LGT5 030930Z 02313G24KT 26/15 Q1015 Amorgos Cyclades
03/07/2015 LGN6 030930Z 04517G29KT 28/17 Q1017 Andros Cyclades
03/07/2015 LGS7 030930Z 00012KT 25/20 Q1016 Donoussa Cyclades
03/07/2015 LGI0 030930Z 33822KT 25/18 Q1016 Ios Cyclades
03/07/2015 LGP2 030930Z 02317KT 23/14 Q1021 Ioulida - Kea Cyclades
03/07/2015 LGP5 030930Z 04509KT 28/16 Q1015 Iraklia Cyclades
03/07/2015 LGE3 031030Z 00012G27KT 24/16 Q1019 Kea Cyclades
03/07/2015 LGX8 030930Z 00015KT 27/15 Q1015 Koufonissia Cyclades
03/07/2015 LGS0 030930Z 02312G23KT 26/18 Q1019 Milos Cyclades
03/07/2015 LG66 030930Z 02326KT 24/17 Q1016 Mykonos Cyclades
03/07/2015 LGM0 030930Z 00016KT 25/18 Q1017 Naxos Cyclades
03/07/2015 LGV3 030930Z 22503KT 25/15 Q1019 Naxos - Apiranthos Cyclades
03/07/2015 LGT0 030930Z 31503KT 25/18 Q1018 Naxos - Apollonas Cyclades
03/07/2015 LGU1 030930Z 04510G21KT 28/12 Q1016 Naxos - Damarionas Cyclades
03/07/2015 LGU2 030930Z 02312G23KT 22/13 Q1017 Naxos - Koronos Cyclades
03/07/2015 LGN7 030930Z 29304KT 26/13 Q1017 Naxos - Kynidaros Cyclades
03/07/2015 LGW1 030930Z 33809KT 26/17 Q1017 Naxos - Melanes Cyclades
03/07/2015 LGO7 030930Z 02317G28KT 27/18 Q1016 Naxos - Mikri Vigla Cyclades
03/07/2015 LG02 030930Z 00015KT 26/19 Q1018 Paros Cyclades
03/07/2015 LGX5 030930Z 02312KT 27/18 Q1014 Santorini Cyclades
03/07/2015 LGX7 030930Z 02321KT 27/14 Q1015 Schinoussa Cyclades
17/06/2015 LG07 171830Z 00000KT 261/94 Q10040 Tinos Cyclades
03/07/2015 LGB8 030930Z 00012G26KT 26/17 Q1017 Tinos NOA Cyclades
03/07/2015 LGAB 031030Z 31503KT 28/13 Q1011 Emponas - Rhodes Dodecanese
03/07/2015 LGG6 030930Z 33804G17KT 29/13 Q1014 Kalymnos Dodecanese
03/07/2015 LGAC 031030Z 29311KT 28/18 Q1010 Kattavia - Rhodes Dodecanese
03/07/2015 LGAA 031030Z 15807KT 31/16 Q1012 Lindos - Rhodes Dodecanese
03/07/2015 LG65 030930Z 00012KT 27/16 Q1015 Patmos Dodecanese
03/07/2015 LGS9 030930Z 22504KT 28/16 Q1013 Rhodes Dodecanese
03/07/2015 LGM5 030930Z 00000KT 25/20 Q1013 Kasos Dodecanisa
02/07/2015 LGX1 022130Z 24811KT 24/18 Q1013 Kos Dodekanissa
03/07/2015 LG6C 031030Z 33810KT 28/13 Q1017 Chios Town East Aegean
03/07/2015 LGT1 030930Z 29310KT 26/19 Q1015 Fournoi East Aegean
03/07/2015 LGI9 030930Z 33801KT 25/16 Q1013 Ikaria East Aegean
03/07/2015 LGI5 030930Z 02315KT 27/17 Q1019 Lemnos East Aegean
03/07/2015 LGJ3 030930Z 00009KT 25/19 Q1020 Lesvos - Thermi East Aegean
20/06/2015 LGZ7 201530Z 33807KT 18/07 Q1018 Mantamados East Aegean
03/07/2015 LGY5 030930Z 00008KT 27/15 Q1020 Molyvos East Aegean
03/07/2015 LGF1 031030Z 31505KT 27/19 Q1014 Samos East Aegean
03/07/2015 LG2D 030930Z 04508KT 28/15 Q1018 Agia Paraskeui Lesvos East Aegen
03/07/2015 LGW7 030930Z 00032G43KT 25/13 Q1016 Akrotirio Paksimada Evia
03/07/2015 LGO3 030930Z 04507G18KT 27/16 Q1018 Chalkida Evia
03/07/2015 LGR5 030930Z 00000KT 20/18 Q1019 Kavodoro Evia
09/06/2015 LGY0 090700Z 11300KT 09/05 Q1034 Krieza Evia
03/07/2015 LGX0 030930Z 00008KT 24/15 Q1022 Kymi Evia
09/06/2015 LGT7 091630Z 20300KT 18/13 Q1014 Setta Evia
03/07/2015 LG81 030930Z 02306KT 23/15 Q1020 Steni Evia
01/07/2015 LGC4 010830Z 29303KT 25/19 Q1019 Styra Evia
03/07/2015 LGD3 030930Z 00009G23KT 26/17 Q1020 Zarakes Evia
02/07/2015 LGP6 020530Z 00000KT 16/15 Q1022 Agia Kyriaki Ioanninon Hepirus
03/07/2015 LGO1 030930Z 15803KT 30/18 Q1020 Aridaia Hepirus
03/07/2015 LGD2 031030Z 18003KT 30/18 Q1019 Arta - Kompoti Hepirus
03/07/2015 LG38 031030Z 27002KT 32/17 Q1019 Arta - Vlacherna Hepirus
03/07/2015 LGE4 030930Z 31503KT 25/16 Q1020 Aspraggeloi Hepirus
03/07/2015 LGI3 030930Z 27002KT 27/17 Q1020 Derviziana Hepirus
03/07/2015 LGP4 030930Z 31502KT 28/16 Q1019 Dodoni Hepirus
02/07/2015 LGL8 021430Z 02304KT 24/07 Q1015 Grammos Hepirus
03/07/2015 LG43 031030Z 22504KT 28/18 Q1020 Igoumenitsa Hepirus
03/07/2015 LG49 030930Z 11302KT 29/16 Q1018 Ioannina Anatoli Hepirus
03/07/2015 LGK1 030930Z 31504KT 28/18 Q1020 Kanali, Preveza Hepirus
03/07/2015 LGE0 030930Z 27001KT 24/14 Q1020 Katarraktis - Arta Hepirus
03/07/2015 LGO5 030930Z 09003KT 25/12 Q1019 Kerasovo Konitsa Hepirus
03/07/2015 LG3A 030930Z 20302KT 29/17 Q1020 Konitsa Hepirus
03/07/2015 LGO8 031030Z 15801KT 22/11 Q1020 Metsovo Hepirus
03/07/2015 LGK6 030830Z 11302KT 22/15 Q1021 Papigo Hepirus
03/07/2015 LGF6 030530Z 00005KT 20/14 Q1020 Paramythia Hepirus
03/07/2015 LGK9 030930Z 22503KT 25/20 Q1021 Parga Hepirus
03/07/2015 LGK7 030830Z 27001KT 25/16 Q1020 Pesta Hepirus
03/07/2015 LGY9 030830Z 18001KT 21/13 Q1010 Plikati Ioanninon Hepirus
03/07/2015 LGP1 030930Z 13502KT 26/15 Q1020 Pramanta Hepirus
03/07/2015 LGK2 030830Z 13503KT 22/12 Q1020 Theodoriana, Arta Hepirus
28/06/2015 LGD0 281230Z 04505KT RA 15/13 Q1011 Tristeno - Ioannina Hepirus
03/07/2015 LGM4 030930Z 02302KT 29/18 Q1019 Tyria Hepirus
03/07/2015 LGR8 030930Z 33800KT 26/15 Q1020 Vourgareli Artas Hepirus
30/06/2015 LGN9 300730Z 00000KT 14/13 Q1017 Vovoussa Hepirus
03/07/2015 LGN0 030930Z 29301KT 28/17 Q1019 Zitsa Hepirus
03/07/2015 LGJ2 030930Z 04503KT 28/21 Q1020 Corfu - Gouvia Ionio
03/07/2015 LGB0 030930Z 33802KT 30/18 Q1019 Ithaki Ionio
03/07/2015 LGI7 030930Z 29308KT 27/20 Q1021 Lefkada Ionio
03/07/2015 LGN1 030930Z 04501KT 27/20 Q1019 Paxoi Ionio
03/07/2015 LGN4 030830Z 00002KT 29/18 Q1019 Zakynthos Ionio
03/07/2015 LGG9 030930Z 31504KT 26/14 Q1019 Amynteo Macedonia
26/06/2015 LG33 261630Z 33806KT 21/09 Q1007 Chalkidiki - Polygyros Macedonia
20/06/2015 LGJ1 201730Z 09000KT 23/18 Q1010 Chalkidiki - Stratoni Macedonia
03/07/2015 LGZ5 030930Z 33811KT 28/14 Q1021 Didymoteicho Macedonia
03/07/2015 LG55 031030Z 13504KT 32/19 Q1020 Dion Macedonia
03/07/2015 LGU8 030930Z 13503KT 26/18 Q1021 Doxato - Drama Macedonia
03/07/2015 LGH3 030950Z 16402KT 27/18 Q1021 Drama Macedonia
03/07/2015 LGH6 031030Z 09005KT 27/17 Q1020 Drama 2 Macedonia
03/07/2015 LGY3 030930Z 11303KT 27/18 Q1021 Eleutheroupoli Macedonia
18/06/2015 LGJ6 181050Z 16812KT 08/02 Q1011 Falakro Macedonia
27/06/2015 LG63 271330Z 00009KT 22/12 Q1014 Florina Macedonia
02/07/2015 LGZ8 022330Z 00000KT 22/17 Q1020 Fotolivos Macedonia
30/06/2015 LG73 301130Z 06803KT 28/15 Q1014 Giannitsa Macedonia
03/07/2015 LGF2 030930Z 13501KT 27/16 Q1020 Grevena Macedonia
03/07/2015 LGO4 030930Z 18004KT 24/14 Q1022 Hmathia - Rizomata Macedonia
03/07/2015 LG7D 030930Z 29303KT 25/16 Q1020 Iera Moni Megistis Lauras Macedonia
30/06/2015 LG93 301030Z 33805KT RA 07/06 Q1018 Kaimaktsalan Macedonia
30/06/2015 LG4D 300330Z 02301KT 17/17 Q1015 Kalampaki Drama Macedonia
03/07/2015 LGO9 030930Z 09006KT 27/19 Q1021 Kassandreia (Xalkidiki) Macedonia
03/07/2015 LGC0 030930Z 04502KT 26/15 Q1019 Kastoria Macedonia
03/07/2015 LG27 030950Z 16700KT 26/18 Q1022 Kavala - Dexameni Macedonia
05/06/2015 LGA2 052147Z 00000KT 01/00 Q1022 Kavala - Eleftheroupoli Macedonia
03/07/2015 LG5D 030930Z 04502KT 25/14 Q1022 Kerasia Edessas Macedonia
03/07/2015 LG42 030930Z 11302KT 28/16 Q1019 Kilkis Macedonia
03/07/2015 LGW8 030830Z 31501KT 28/18 Q1022 Kimisi Macedonia
03/07/2015 LGJ4 030930Z 33805KT 27/15 Q1023 Kozani - Ardassa Macedonia
03/07/2015 LGP3 030930Z 20300KT 16/13 Q1021 Lailias - Serres Macedonia
03/07/2015 LGZ9 030930Z 33803KT 26/13 Q1021 Mavropigi Macedonia
03/07/2015 LG3D 030930Z 13505KT 27/16 Q1021 Mikrokampos Drama Macedonia
03/07/2015 LG40 030930Z 06801KT 28/15 Q1021 Naousa Macedonia
03/07/2015 LG4B 030930Z 09004KT 26/17 Q1021 Nea Peramos Macedonia
03/07/2015 LGZ4 031030Z 20303KT 29/21 Q1021 Neos Marmaras Macedonia
03/07/2015 LG48 030930Z 29302KT 24/15 Q1021 Nevrokopi Drama Macedonia
03/07/2015 LGS4 030930Z 31503KT 24/14 Q1020 Notio Pedio - Eordea Macedonia
03/07/2015 LGW0 030930Z 11303KT 24/18 Q1022 Paranesti Macedonia
03/07/2015 LG26 030930Z 33804KT 26/13 Q1019 Ptolemaida Macedonia
03/07/2015 LG87 030930Z 11303KT 18/12 Q1022 Seli Ski Center Macedonia
03/07/2015 LGW6 030930Z 11303KT 28/17 Q1022 Serres Macedonia
02/07/2015 LGD9 020830Z 04503KT 25/18 Q1021 Serres - Kerkini Macedonia
03/07/2015 LG14 030300Z 00000G31104KT 198/141 Q10195 Serres - Proti Macedonia
03/07/2015 LG5B 030930Z 13503KT 25/17 Q1022 Thasos Macedonia
07/06/2015 LGY8 071419Z 31505KT 9999 SCT036 10/00 Q1010 Thassos Macedonia
03/07/2015 LGR9 030930Z 24803KT 28/20 Q1021 Thessaloniki Macedonia
03/07/2015 LGF0 030930Z 06802KT 24/14 Q1020 Variko Macedonia
16/06/2015 LG82 160630Z 27009KT 06/01 Q1022 Vassilitsa Macedonia
11/06/2015 LGC2 110830Z 00003KT 27/18 Q1013 Vatopedi - Athos Macedonia
03/07/2015 LGE9 030830Z 18002KT 24/15 Q1023 Vegoritida Macedonia
03/07/2015 LGE5 030930Z 06803KT 29/18 Q1019 Veroia Macedonia
03/07/2015 LG98 030830Z 09003KT 20/12 Q1021 Vlasti - Kozani Macedonia
02/07/2015 LGF5 020200Z 17500KT 10/08 Q1012 Vounochori - Kavala Macedonia
26/06/2015 LGU5 261230Z 06805KT -RA 13/11 Q1014 Agioi Theodoroi Peloponissos
03/07/2015 LGU7 030930Z 31503KT 25/14 Q1018 Alagonia - Messinia Peloponissos
03/07/2015 LG52 030930Z 29306KT 30/18 Q1018 Amaliada Peloponissos
03/07/2015 LG77 030930Z 33802KT 26/16 Q1019 Andritsaina Peloponissos
03/07/2015 LGU6 030930Z 33803KT 33/16 Q1018 Arfara - Messinia Peloponissos
03/07/2015 LGT3 030930Z 31506KT 31/14 Q1019 Argos Peloponissos
03/07/2015 LGV0 030830Z 06803KT 30/17 Q1018 Derveni Peloponissos
28/06/2015 LGK4 280630Z 15801KT -RA 03/02 Q1021 Elati Peloponissos
03/07/2015 LGC3 030930Z 27003KT 28/16 Q1017 Foloi - Ilia Peloponissos
03/07/2015 LGX6 030930Z 31505KT 30/13 Q1019 Geraki Peloponissos
03/07/2015 LGB7 030930Z 33805KT 29/16 Q1018 Ilia - Vartholomio Peloponissos
03/07/2015 LG85 030930Z 27005KT 28/19 Q1019 Isthmos Peloponissos
03/07/2015 LG6A 030930Z 18005KT 29/20 Q1018 Kalamata Peloponissos
22/06/2015 LGV7 221530Z 31502KT 25/11 Q1010 Kalavryta Peloponissos
03/07/2015 LGZ3 030930Z 20308KT 25/20 Q1018 Kardamyli Peloponissos
27/06/2015 LG0C 272330Z 04502KT 19/10 Q1011 Kastritsi Peloponissos
03/07/2015 LGJ5 030930Z 29308KT 25/20 Q1018 Katakolo Peloponissos
03/07/2015 LGP7 031030Z 31501KT 26/14 Q1019 016 Kato Vlassia Peloponissos
27/06/2015 LGB2 272000Z 20301KT 27/23 Q1011 Katoachaia Peloponissos
03/07/2015 LGB5 030930Z 00014G28KT 27/16 Q1017 Kavomalias Peloponissos
03/07/2015 LG8D 030830Z 04502KT 29/16 Q1019 Kiato Peloponissos
03/07/2015 LGM7 030930Z 00010KT 32/14 Q1020 Kranidi Peloponissos
03/07/2015 LGV1 030930Z 33802KT 30/17 Q1019 Kyparissia Peloponissos
03/07/2015 LGW9 030930Z 13501KT 25/14 Q1019 Lagadia Peloponissos
03/07/2015 LG0A 030930Z 20301KT 24/13 Q1020 Lampia - Ilia Peloponissos
03/07/2015 LG92 030930Z 31503KT 30/18 Q1017 Lappa-Larissos-Achaia Peloponissos
03/07/2015 LG4C 030930Z 33802KT 26/13 Q1019 Levidi Peloponissos
07/06/2015 LG91 070630Z 00000KT 21/15 Q1012 Lousika-Olenias-Achaia Peloponissos
03/07/2015 LGV4 030930Z 33809G23KT 24/12 Q1017 Lykochia Peloponissos
03/07/2015 LGG5 030930Z 27002KT 29/16 Q1019 Megalopoli Peloponissos
03/07/2015 LGV2 030930Z 24804KT 29/14 Q1019 Messinia - Kopanaki Peloponissos
02/07/2015 LGF8 020430Z 33806KT 24/12 Q1017 Molaoi Peloponissos
03/07/2015 LG56 030930Z 04520G31KT 30/17 Q1018 Monemvasia Peloponissos
03/07/2015 LGE1 030930Z 06807KT 29/17 Q1018 Nemea Peloponissos
03/07/2015 LGD5 030930Z 02303KT 32/18 Q1018 Oleni - Ilia Peloponissos
03/07/2015 LGB3 030930Z 31503KT 32/16 Q1018 Olympia Peloponissos
03/07/2015 LGV6 030630Z 06813KT 16/10 Q1021 Panachaiko Oros Peloponissos
03/07/2015 LGZ1 030930Z 31503KT 28/17 Q1018 Patra Peloponissos
03/07/2015 LG79 030405Z 00000KT 209/155 Q10198 Patra - Agia Peloponissos
03/07/2015 LG71 031000Z 2701728G6102KT 287/190 Q10185 Patra - Drosia Peloponissos
03/07/2015 LG84 030930Z 24800KT 24/21 Q1019 Patra - Port Peloponissos
03/07/2015 LGG7 030930Z 31502KT 30/16 Q1019 Pinia Peloponissos
03/07/2015 LG59 031030Z 29306KT 31/17 Q1017 Pirgos Peloponissos
03/07/2015 LGH8 030930Z 22502KT 25/20 Q1018 Rio Peloponissos
03/07/2015 LGT9 031030Z 24803KT 27/17 Q1018 Romanos - Patra Peloponissos
27/06/2015 LGA0 270930Z 31517G30KT 19/15 Q1007 Sagaiika Peloponissos
03/07/2015 LGF7 030930Z 31503KT 31/18 Q1020 Sparti Peloponissos
03/07/2015 LGS2 030930Z 20301KT 23/14 Q1020 Stemnitsa Peloponissos
03/07/2015 LGR1 030930Z 04503KT 24/13 Q1018 Trikala Korinthias Peloponissos
03/07/2015 LG83 031030Z 33804KT 27/14 Q1019 Tripoli Peloponissos
03/07/2015 LGU9 030930Z 00003KT 24/14 Q1019 Vytina Peloponissos
24/06/2015 LG86 240830Z 27005KT 25/18 Q1015 Zaxaro Peloponissos
01/07/2015 LGN2 010730Z 29308KT 23/19 Q1021 Alonissos Sporades
03/07/2015 LGI1 030930Z 02312G23KT 25/17 Q1021 Skyros Sporades
03/07/2015 LGH9 030930Z 18003KT 30/15 Q1021 Agrinio Sterea Ellada
03/07/2015 LGC7 030930Z 00000KT 31/18 Q1019 Aitoliko Sterea Ellada
03/07/2015 LG29 031030Z 04500KT 25/17 Q1020 Amfiklia Sterea Ellada
03/07/2015 LGH1 030400Z 00000KT 195/141 Q10197 Amfiklia 2 Sterea Ellada
03/07/2015 LGG8 030930Z 04504KT 28/17 Q1022 Antikira Sterea Ellada
03/07/2015 LG97 031015Z 09010KT 23/13 Q1019 Arachova Sterea Ellada
03/07/2015 LGC5 030930Z 09004KT 20/14 Q1022 Arahova Sterea Ellada
03/07/2015 LGH0 030930Z 02310KT 29/16 Q1019 Avlida Sterea Ellada
03/07/2015 LGR2 030930Z 02302KT 29/15 Q1019 Dam of Mornos Sterea Ellada
01/07/2015 LGR3 011130Z 20301KT 23/17 Q1019 Diakopi of Lidoriki Sterea Ellada
03/07/2015 LGW5 030930Z 29302KT 25/17 Q1020 Domokos Sterea Ellada
14/06/2015 LG21 141323Z 24804KT 29/15 Q1014 Evia - Chalkida Sterea Ellada
03/07/2015 LGY4 030930Z 15808KT 29/13 Q1020 Galaxidi Sterea Ellada
03/07/2015 LGC8 031000Z 337864G5238KT 313/183 Q10174 Gavalou - Aitol/nia Sterea Ellada
03/07/2015 LGJ7 030930Z 29303KT 28/15 Q1021 Kaparelli Sterea Ellada
03/07/2015 LGC9 030930Z 06803KT 25/14 Q1021 Karpenisi Sterea Ellada
03/07/2015 LGP9 030930Z 02305KT 27/15 Q1018 Kleidi Viotias Sterea Ellada
03/07/2015 LGR4 030930Z 06805KT 25/13 Q1020 Koniakos of Lidoriki Sterea Ellada
03/07/2015 LG5A 030930Z 00008KT 28/15 Q1020 Kopaida Sterea Ellada
03/07/2015 LGV9 030830Z 06805KT 27/16 Q1020 Lamia Sterea Ellada
29/06/2015 LGJ8 291530Z 27000KT 27/16 Q1013 Lefkochori Sterea Ellada
03/07/2015 LGI8 031030Z 00004KT 28/16 Q1021 Livadeia Sterea Ellada
03/07/2015 LGE7 030930Z 15800KT 30/19 Q1018 Makrakomi Sterea Ellada
03/07/2015 LGA6 030930Z 06804KT 20/14 Q1020 Mavrolithari - Vardousia Sterea Ellada
03/07/2015 LGK8 031030Z 06808KT 23/15 Q1019 Myriki Sterea Ellada
03/07/2015 LGG4 030930Z 31505KT 24/13 Q1019 Orini Nafpaktia Sterea Ellada
20/06/2015 LGA4 200900Z 22502G16KT 01/01 Q1009 Parnassos Sterea Ellada
18/06/2015 LGF9 180830Z 00000KT 07/M04 Q1016 Parnassos1950 Sterea Ellada
03/07/2015 LGL0 030930Z 13501KT 27/17 Q1021 Polydroso Sterea Ellada
07/06/2015 LGR7 071230Z 04508KT 11/09 Q1025 Prasino - Viotia Sterea Ellada
01/07/2015 LG69 011330Z 00006KT 27/15 Q1017 Tanagra Sterea Ellada
03/07/2015 LGO6 030930Z 06803KT 29/19 Q1021 Theologos Sterea Ellada
03/07/2015 LG94 030930Z 00000KT 228/181 Q10211 Hortiatis Thes/niki
03/07/2015 LG15 031013Z 21105KT 30/03 Q1026 Kamara Thes/niki Thes/niki
03/07/2015 LGA5 030930Z 22500KT 28/18 Q1021 Lagadas Thes/niki
03/07/2015 LG7C 030930Z 22503KT 27/18 Q1021 Nea Michaniona Thes/niki
03/07/2015 LG8C 030930Z 15803KT 30/19 Q1021 Sindos Thes/niki
24/06/2015 LG11 240730Z 12901KT 10/06 Q1006 West Thes/niki Thes/niki
03/07/2015 LGV5 030830Z 06803KT 28/17 Q1019 Tsamantas Thesprotia
03/07/2015 LGL4 030930Z 15803KT 23/12 Q1022 Gardiki Thessalia
03/07/2015 LGW3 030930Z 27003KT 29/15 Q1018 Kalabaka Thessalia
03/07/2015 LG2A 030930Z 24802KT 28/16 Q1021 Karditsa Thessalia
03/07/2015 LGU3 031000Z 292864G2592KT 310/166 Q10186 Larissa Thessalia
03/07/2015 LG41 031000Z 0222592G6966KT 303/131 Q10192 Larissa Thessalia
03/07/2015 LGL6 030930Z 06802KT 29/17 Q1020 Larissa Thessalia
03/07/2015 LGS8 030930Z 06805KT 29/18 Q1021 Larissa - Agia Thessalia
30/06/2015 LGL7 300830Z 04504KT 18/15 Q1014 Limni Plastira Thessalia
03/07/2015 LG6B 031030Z 06806KT 26/18 Q1019 Moni Paou Thessalia
26/06/2015 LGU4 260700Z 29304KT 04/M07 Q1013 Olympos Thessalia
03/07/2015 LG7A 031000Z 1575238G8694KT 272/185 Q10211 Pedio Areos Volou Thessalia
03/07/2015 LGE2 030630Z 11301KT 18/13 Q1021 Pertouli Thessalia
03/07/2015 LGY2 030930Z 20301KT 25/16 Q1020 Portaria - Pelio Thessalia
03/07/2015 LG80 030930Z 06803KT 26/19 Q1024 Skopelos - Sporades Thessalia
03/07/2015 LG24 030930Z 00006KT 26/20 Q1021 Sporades - Skiathos Thessalia
03/07/2015 LG57 030930Z 11303KT 29/16 Q1021 Trikala Thessalia
03/07/2015 LG51 030930Z 18003KT 27/19 Q1020 Volos Thessalia
03/07/2015 LGG3 030930Z 09003KT 22/19 Q1023 Zagora EAA Thessalia
03/07/2015 LGD8 030930Z 04507KT 28/18 Q1021 Alexandroupolis Thraki
03/07/2015 LGM9 030930Z 33803KT 26/18 Q1019 Imeros Thraki
10/06/2015 LG35 102238Z 10600KT 06/01 Q1026 Komotini Thraki
30/06/2015 LGL2 300430Z 22503KT 19/16 Q1016 Metaxades - Evros Thraki
03/07/2015 LG31 030930Z 02309KT 28/12 Q1020 Orestiada Thraki
26/06/2015 LGC1 260530Z 00000KT 23/16 Q1012 Samothraki Thraki
16/06/2015 LGC6 161300Z 09005KT +RA 21/18 Q1009 Xanthi Thraki
www.meteorologia.gr